createdAt,value
2017-09-18T00:00:22.258Z,0
2017-09-18T00:01:30.917Z,0
2017-09-18T00:02:39.884Z,0
2017-09-18T00:03:48.977Z,0
2017-09-18T00:04:58.745Z,0
2017-09-18T00:06:08.082Z,0
2017-09-18T00:07:17.062Z,0
2017-09-18T00:08:26.026Z,0
2017-09-18T00:09:34.684Z,0
2017-09-18T00:10:43.338Z,0
2017-09-18T00:11:52.637Z,0
2017-09-18T00:13:01.606Z,0
2017-09-18T00:14:10.606Z,0
2017-09-18T00:15:20.192Z,0
2017-09-18T00:16:29.155Z,0
2017-09-18T00:17:38.432Z,0
2017-09-18T00:18:47.421Z,0
2017-09-18T00:19:56.384Z,0
2017-09-18T00:21:05.360Z,0
2017-09-18T00:22:14.359Z,0
2017-09-18T00:23:23.324Z,0
2017-09-18T00:24:31.991Z,0
2017-09-18T00:25:41.264Z,0
2017-09-18T00:26:50.231Z,0
2017-09-18T00:27:58.874Z,0
2017-09-18T00:29:07.524Z,0
2017-09-18T00:30:16.501Z,0
2017-09-18T00:31:25.790Z,0
2017-09-18T00:32:34.770Z,0
2017-09-18T00:33:43.741Z,0
2017-09-18T00:34:52.731Z,0
2017-09-18T00:36:01.399Z,0
2017-09-18T00:37:10.076Z,0
2017-09-18T00:38:19.046Z,0
2017-09-18T00:39:28.016Z,0
2017-09-18T00:40:36.672Z,0
2017-09-18T00:41:45.318Z,0
2017-09-18T00:42:54.299Z,0
2017-09-18T00:44:03.600Z,0
2017-09-18T00:45:12.743Z,0
2017-09-18T00:46:21.708Z,0
2017-09-18T00:47:30.686Z,0
2017-09-18T00:48:39.657Z,0
2017-09-18T00:49:48.621Z,0
2017-09-18T00:50:58.044Z,0
2017-09-18T00:52:07.013Z,0
2017-09-18T00:53:15.668Z,0
2017-09-18T00:54:24.642Z,0
2017-09-18T00:55:33.292Z,0
2017-09-18T00:56:42.565Z,0
2017-09-18T00:57:51.877Z,0
2017-09-18T00:59:00.835Z,0
2017-09-18T01:00:10.188Z,0
2017-09-18T01:01:19.180Z,0
2017-09-18T01:02:28.292Z,0
2017-09-18T01:03:36.973Z,0
2017-09-18T01:04:45.611Z,0
2017-09-18T01:05:54.892Z,0
2017-09-18T01:07:04.810Z,0
2017-09-18T01:08:13.803Z,0
2017-09-18T01:09:22.483Z,0
2017-09-18T01:10:31.149Z,0
2017-09-18T01:11:40.108Z,0
2017-09-18T01:12:49.720Z,0
2017-09-18T01:13:58.678Z,0
2017-09-18T01:15:07.652Z,0
2017-09-18T01:16:16.954Z,0
2017-09-18T01:17:26.243Z,0
2017-09-18T01:18:34.893Z,0
2017-09-18T01:19:44.319Z,0
2017-09-18T01:20:53.297Z,0
2017-09-18T01:22:01.953Z,0
2017-09-18T01:23:10.615Z,0
2017-09-18T01:24:20.225Z,0
2017-09-18T01:25:29.010Z,0
2017-09-18T01:26:38.046Z,0
2017-09-18T01:27:47.338Z,0
2017-09-18T01:28:56.627Z,0
2017-09-18T01:30:05.286Z,0
2017-09-18T01:31:14.085Z,0
2017-09-18T01:32:23.061Z,0
2017-09-18T01:33:32.662Z,0
2017-09-18T01:34:41.315Z,0
2017-09-18T01:35:50.291Z,0
2017-09-18T01:36:59.702Z,0
2017-09-18T01:38:09.317Z,0
2017-09-18T01:39:19.267Z,0
2017-09-18T01:40:28.317Z,0
2017-09-18T01:41:38.242Z,0
2017-09-18T01:42:46.903Z,0
2017-09-18T01:43:55.890Z,0
2017-09-18T01:45:05.500Z,0
2017-09-18T01:46:14.150Z,0
2017-09-18T01:47:22.805Z,0
2017-09-18T01:48:31.900Z,0
2017-09-18T01:49:40.873Z,0
2017-09-18T01:50:49.833Z,0
2017-09-18T01:51:59.137Z,0
2017-09-18T01:53:08.411Z,0
2017-09-18T01:54:17.366Z,0
2017-09-18T01:55:26.327Z,0
2017-09-18T01:56:35.664Z,0
2017-09-18T01:57:44.329Z,0
2017-09-18T01:58:52.982Z,0
2017-09-18T02:00:02.242Z,0
2017-09-18T02:01:11.543Z,0
2017-09-18T02:02:20.814Z,0
2017-09-18T02:03:29.836Z,0
2017-09-18T02:04:38.801Z,0
2017-09-18T02:05:48.072Z,0
2017-09-18T02:06:56.749Z,0
2017-09-18T02:08:06.031Z,0
2017-09-18T02:09:15.300Z,0
2017-09-18T02:10:24.575Z,0
2017-09-18T02:11:33.700Z,0
2017-09-18T02:12:42.981Z,0
2017-09-18T02:13:51.627Z,0
2017-09-18T02:15:00.599Z,0
2017-09-18T02:16:09.558Z,0
2017-09-18T02:17:18.502Z,0
2017-09-18T02:18:27.784Z,0
2017-09-18T02:19:37.371Z,0
2017-09-18T02:20:46.024Z,0
2017-09-18T02:21:54.999Z,0
2017-09-18T02:23:04.146Z,0
2017-09-18T02:24:13.429Z,0
2017-09-18T02:25:22.074Z,0
2017-09-18T02:26:31.035Z,0
2017-09-18T02:27:40.339Z,0
2017-09-18T02:28:49.636Z,0
2017-09-18T02:29:58.938Z,0
2017-09-18T02:31:07.973Z,0
2017-09-18T02:32:17.001Z,0
2017-09-18T02:33:26.606Z,0
2017-09-18T02:34:36.627Z,0
2017-09-18T02:35:46.243Z,0
2017-09-18T02:36:55.258Z,0
2017-09-18T02:38:04.881Z,0
2017-09-18T02:39:14.488Z,0
2017-09-18T02:40:23.760Z,0
2017-09-18T02:41:32.475Z,0
2017-09-18T02:42:41.970Z,0
2017-09-18T02:43:51.257Z,0
2017-09-18T02:45:00.885Z,0
2017-09-18T02:46:09.996Z,0
2017-09-18T02:47:18.975Z,0
2017-09-18T02:48:28.291Z,0
2017-09-18T02:49:37.268Z,0
2017-09-18T02:50:46.221Z,0
2017-09-18T02:51:55.676Z,0
2017-09-18T02:53:04.977Z,0
2017-09-18T02:54:14.589Z,0
2017-09-18T02:55:23.893Z,0
2017-09-18T02:56:33.490Z,0
2017-09-18T02:57:43.085Z,0
2017-09-18T02:58:52.370Z,0
2017-09-18T03:00:01.662Z,0
2017-09-18T03:01:10.997Z,0
2017-09-18T03:02:20.279Z,0
2017-09-18T03:03:29.249Z,0
2017-09-18T03:04:38.567Z,0
2017-09-18T03:05:47.588Z,0
2017-09-18T03:06:56.258Z,0
2017-09-18T03:08:04.925Z,0
2017-09-18T03:09:14.522Z,0
2017-09-18T03:10:23.817Z,0
2017-09-18T03:11:32.772Z,0
2017-09-18T03:12:41.745Z,0
2017-09-18T03:13:51.730Z,0
2017-09-18T03:15:01.055Z,0
2017-09-18T03:16:10.024Z,0
2017-09-18T03:17:18.670Z,0
2017-09-18T03:18:27.961Z,0
2017-09-18T03:19:36.944Z,0
2017-09-18T03:20:46.233Z,0
2017-09-18T03:21:55.822Z,0
2017-09-18T03:23:05.423Z,0
2017-09-18T03:24:14.376Z,0
2017-09-18T03:25:23.996Z,0
2017-09-18T03:26:32.981Z,0
2017-09-18T03:27:41.978Z,0
2017-09-18T03:28:50.937Z,0
2017-09-18T03:30:00.230Z,0
2017-09-18T03:31:09.517Z,0
2017-09-18T03:32:18.175Z,0
2017-09-18T03:33:28.084Z,0
2017-09-18T03:34:36.769Z,0
2017-09-18T03:35:46.064Z,0
2017-09-18T03:36:55.341Z,0
2017-09-18T03:38:04.623Z,0
2017-09-18T03:39:13.582Z,0
2017-09-18T03:40:22.222Z,0
2017-09-18T03:41:31.228Z,0
2017-09-18T03:42:40.203Z,0
2017-09-18T03:43:49.476Z,0
2017-09-18T03:44:58.124Z,0
2017-09-18T03:46:07.400Z,0
2017-09-18T03:47:16.690Z,0
2017-09-18T03:48:25.655Z,0
2017-09-18T03:49:34.970Z,0
2017-09-18T03:50:43.627Z,0
2017-09-18T03:51:52.589Z,0
2017-09-18T03:53:01.869Z,0
2017-09-18T03:54:10.516Z,0
2017-09-18T03:55:19.184Z,0
2017-09-18T03:56:28.465Z,0
2017-09-18T03:57:37.468Z,0
2017-09-18T03:58:46.432Z,0
2017-09-18T03:59:55.088Z,0
2017-09-18T04:01:04.113Z,0
2017-09-18T04:02:13.732Z,0
2017-09-18T04:03:23.333Z,0
2017-09-18T04:04:32.292Z,0
2017-09-18T04:05:41.570Z,0
2017-09-18T04:06:50.850Z,0
2017-09-18T04:08:00.135Z,0
2017-09-18T04:09:09.118Z,0
2017-09-18T04:10:18.099Z,0
2017-09-18T04:11:27.075Z,0
2017-09-18T04:12:35.740Z,0
2017-09-18T04:13:45.359Z,0
2017-09-18T04:14:54.640Z,0
2017-09-18T04:16:03.613Z,0
2017-09-18T04:17:12.588Z,0
2017-09-18T04:18:21.570Z,0
2017-09-18T04:19:30.542Z,0
2017-09-18T04:20:39.234Z,0
2017-09-18T04:21:48.284Z,0
2017-09-18T04:22:57.582Z,0
2017-09-18T04:24:06.539Z,0
2017-09-18T04:25:15.201Z,0
2017-09-18T04:26:24.501Z,0
2017-09-18T04:27:33.479Z,0
2017-09-18T04:28:42.768Z,0
2017-09-18T04:29:52.070Z,0
2017-09-18T04:31:01.038Z,0
2017-09-18T04:32:10.331Z,0
2017-09-18T04:33:19.621Z,0
2017-09-18T04:34:28.902Z,0
2017-09-18T04:35:38.516Z,0
2017-09-18T04:36:47.499Z,0
2017-09-18T04:37:56.481Z,0
2017-09-18T04:39:05.456Z,0
2017-09-18T04:40:15.051Z,0
2017-09-18T04:41:24.651Z,0
2017-09-18T04:42:33.645Z,0
2017-09-18T04:43:43.253Z,0
2017-09-18T04:44:51.908Z,0
2017-09-18T04:46:00.879Z,0
2017-09-18T04:47:10.185Z,0
2017-09-18T04:48:19.797Z,0
2017-09-18T04:49:29.390Z,0
2017-09-18T04:50:38.362Z,0
2017-09-18T04:51:47.646Z,0
2017-09-18T04:52:56.936Z,0
2017-09-18T04:54:06.257Z,0
2017-09-18T04:55:15.230Z,0
2017-09-18T04:56:24.523Z,0
2017-09-18T04:57:33.515Z,0
2017-09-18T04:58:42.483Z,0
2017-09-18T04:59:52.177Z,0
2017-09-18T05:01:01.491Z,0
2017-09-18T05:02:10.801Z,0
2017-09-18T05:03:19.794Z,0
2017-09-18T05:04:28.465Z,0
2017-09-18T05:05:38.078Z,0
2017-09-18T05:06:47.050Z,0
2017-09-18T05:07:56.137Z,0
2017-09-18T05:09:05.216Z,0
2017-09-18T05:10:14.347Z,0
2017-09-18T05:11:23.826Z,0
2017-09-18T05:12:32.697Z,0
2017-09-18T05:13:42.236Z,0
2017-09-18T05:14:51.222Z,0
2017-09-18T05:16:00.695Z,0
2017-09-18T05:17:09.682Z,0
2017-09-18T05:18:18.444Z,0
2017-09-18T05:19:27.416Z,0
2017-09-18T05:20:36.698Z,0
2017-09-18T05:21:46.082Z,0
2017-09-18T05:22:55.846Z,0
2017-09-18T05:24:05.266Z,0
2017-09-18T05:25:14.231Z,0
2017-09-18T05:26:24.030Z,0
2017-09-18T05:27:33.481Z,0
2017-09-18T05:28:43.432Z,0
2017-09-18T05:29:52.143Z,0
2017-09-18T05:31:01.547Z,0
2017-09-18T05:32:10.360Z,0
2017-09-18T05:33:19.091Z,0
2017-09-18T05:34:29.057Z,0
2017-09-18T05:35:38.657Z,0
2017-09-18T05:36:48.400Z,0
2017-09-18T05:37:57.874Z,0
2017-09-18T05:39:07.212Z,0
2017-09-18T05:40:16.286Z,0
2017-09-18T05:41:25.361Z,0
2017-09-18T05:42:34.720Z,0
2017-09-18T05:43:44.018Z,0
2017-09-18T05:44:53.478Z,0
2017-09-18T05:46:02.622Z,0
2017-09-18T05:47:12.249Z,0
2017-09-18T05:48:21.593Z,0
2017-09-18T05:49:30.693Z,0
2017-09-18T05:50:40.347Z,0
2017-09-18T05:51:49.799Z,5
2017-09-18T05:52:59.086Z,5
2017-09-18T05:54:08.278Z,5
2017-09-18T05:55:16.991Z,5
2017-09-18T05:56:26.052Z,5
2017-09-18T05:57:35.404Z,5
2017-09-18T05:58:44.836Z,5
2017-09-18T05:59:54.565Z,5
2017-09-18T06:01:04.160Z,5
2017-09-18T06:02:12.880Z,5
2017-09-18T06:03:22.154Z,5
2017-09-18T06:04:31.493Z,5
2017-09-18T06:05:40.600Z,5
2017-09-18T06:06:49.285Z,5
2017-09-18T06:07:58.908Z,5
2017-09-18T06:09:08.283Z,5
2017-09-18T06:10:17.692Z,5
2017-09-18T06:11:27.090Z,5
2017-09-18T06:12:36.278Z,5
2017-09-18T06:13:45.976Z,5
2017-09-18T06:14:54.950Z,5
2017-09-18T06:16:04.304Z,5
2017-09-18T06:17:13.599Z,5
2017-09-18T06:18:22.703Z,5
2017-09-18T06:19:31.726Z,5
2017-09-18T06:20:40.529Z,5
2017-09-18T06:21:50.262Z,5
2017-09-18T06:22:58.922Z,10
2017-09-18T06:24:07.672Z,10
2017-09-18T06:25:16.962Z,10
2017-09-18T06:26:26.391Z,10
2017-09-18T06:27:35.356Z,10
2017-09-18T06:28:44.029Z,10
2017-09-18T06:29:52.990Z,5
2017-09-18T06:31:02.136Z,5
2017-09-18T06:32:10.771Z,10
2017-09-18T06:33:19.591Z,5
2017-09-18T06:34:28.426Z,5
2017-09-18T06:35:37.650Z,10
2017-09-18T06:36:46.731Z,10
2017-09-18T06:37:56.014Z,10
2017-09-18T06:39:05.058Z,10
2017-09-18T06:40:13.888Z,10
2017-09-18T06:41:22.542Z,10
2017-09-18T06:42:31.541Z,10
2017-09-18T06:43:40.294Z,10
2017-09-18T06:44:49.915Z,10
2017-09-18T06:45:59.598Z,10
2017-09-18T06:47:08.924Z,10
2017-09-18T06:48:18.255Z,10
2017-09-18T06:49:27.379Z,10
2017-09-18T06:50:36.377Z,10
2017-09-18T06:51:45.043Z,15
2017-09-18T06:52:54.042Z,15
2017-09-18T06:54:03.001Z,20
2017-09-18T06:55:12.000Z,25
2017-09-18T06:56:21.122Z,25
2017-09-18T06:57:30.542Z,25
2017-09-18T06:58:39.525Z,25
2017-09-18T06:59:48.573Z,30
2017-09-18T07:00:58.165Z,30
2017-09-18T07:02:07.379Z,30
2017-09-18T07:03:16.052Z,30
2017-09-18T07:04:25.578Z,30
2017-09-18T07:05:34.230Z,30
2017-09-18T07:06:43.297Z,30
2017-09-18T07:07:52.970Z,30
2017-09-18T07:09:02.084Z,35
2017-09-18T07:10:11.086Z,35
2017-09-18T07:11:20.783Z,35
2017-09-18T07:12:29.747Z,35
2017-09-18T07:13:39.396Z,35
2017-09-18T07:14:48.059Z,35
2017-09-18T07:15:57.410Z,35
2017-09-18T07:17:06.380Z,35
2017-09-18T07:18:15.650Z,35
2017-09-18T07:19:24.715Z,35
2017-09-18T07:20:34.378Z,30
2017-09-18T07:21:43.481Z,30
2017-09-18T07:22:52.806Z,25
2017-09-18T07:24:01.543Z,25
2017-09-18T07:25:10.580Z,25
2017-09-18T07:26:20.233Z,25
2017-09-18T07:27:29.362Z,25
2017-09-18T07:28:38.120Z,30
2017-09-18T07:29:47.430Z,35
2017-09-18T07:30:57.634Z,40
2017-09-18T07:32:06.973Z,35
2017-09-18T07:33:16.267Z,35
2017-09-18T07:34:25.242Z,35
2017-09-18T07:35:34.817Z,35
2017-09-18T07:36:44.535Z,35
2017-09-18T07:37:53.299Z,35
2017-09-18T07:39:02.969Z,35
2017-09-18T07:40:11.999Z,40
2017-09-18T07:41:21.291Z,45
2017-09-18T07:42:30.555Z,50
2017-09-18T07:43:40.210Z,60
2017-09-18T07:44:49.683Z,70
2017-09-18T07:45:58.735Z,60
2017-09-18T07:47:07.720Z,45
2017-09-18T07:48:16.386Z,40
2017-09-18T07:49:25.679Z,35
2017-09-18T07:50:35.037Z,30
2017-09-18T07:51:43.695Z,25
2017-09-18T07:52:52.712Z,25
2017-09-18T07:54:02.377Z,20
2017-09-18T07:55:12.034Z,20
2017-09-18T07:56:21.023Z,20
2017-09-18T07:57:30.477Z,25
2017-09-18T07:58:39.501Z,25
2017-09-18T07:59:48.801Z,25
2017-09-18T08:00:57.791Z,25
2017-09-18T08:02:07.086Z,25
2017-09-18T08:03:17.365Z,25
2017-09-18T08:04:26.607Z,20
2017-09-18T08:05:35.904Z,20
2017-09-18T08:06:45.387Z,20
2017-09-18T08:07:54.626Z,20
2017-09-18T08:09:03.604Z,25
2017-09-18T08:10:13.314Z,25
2017-09-18T08:11:22.325Z,25
2017-09-18T08:12:31.173Z,25
2017-09-18T08:13:39.845Z,20
2017-09-18T08:14:48.852Z,20
2017-09-18T08:15:57.914Z,25
2017-09-18T08:17:06.951Z,30
2017-09-18T08:18:15.763Z,30
2017-09-18T08:19:25.367Z,30
2017-09-18T08:20:34.760Z,30
2017-09-18T08:21:43.792Z,30
2017-09-18T08:22:52.756Z,30
2017-09-18T08:24:01.729Z,25
2017-09-18T08:25:10.699Z,30
2017-09-18T08:26:20.293Z,35
2017-09-18T08:27:29.210Z,45
2017-09-18T08:28:38.284Z,55
2017-09-18T08:29:47.787Z,60
2017-09-18T08:30:56.458Z,60
2017-09-18T08:32:05.436Z,65
2017-09-18T08:33:15.116Z,60
2017-09-18T08:34:24.508Z,60
2017-09-18T08:35:33.225Z,65
2017-09-18T08:36:42.569Z,60
2017-09-18T08:37:51.243Z,65
2017-09-18T08:39:00.305Z,75
2017-09-18T08:40:10.087Z,70
2017-09-18T08:41:18.886Z,70
2017-09-18T08:42:27.990Z,65
2017-09-18T08:43:37.376Z,70
2017-09-18T08:44:46.402Z,70
2017-09-18T08:45:55.768Z,70
2017-09-18T08:47:05.398Z,60
2017-09-18T08:48:14.693Z,55
2017-09-18T08:49:24.374Z,50
2017-09-18T08:50:33.655Z,40
2017-09-18T08:51:43.081Z,40
2017-09-18T08:52:52.522Z,35
2017-09-18T08:54:01.492Z,20
2017-09-18T08:55:10.616Z,20
2017-09-18T08:56:19.431Z,25
2017-09-18T08:57:29.093Z,25
2017-09-18T08:58:38.279Z,25
2017-09-18T08:59:47.766Z,25
2017-09-18T09:00:56.437Z,25
2017-09-18T09:02:05.862Z,30
2017-09-18T09:03:15.268Z,30
2017-09-18T09:04:23.990Z,30
2017-09-18T09:05:33.043Z,25
2017-09-18T09:06:42.097Z,25
2017-09-18T09:07:51.077Z,25
2017-09-18T09:08:59.929Z,25
2017-09-18T09:10:09.717Z,20
2017-09-18T09:11:18.460Z,20
2017-09-18T09:12:27.580Z,15
2017-09-18T09:13:37.214Z,15
2017-09-18T09:14:46.330Z,15
2017-09-18T09:15:55.072Z,15
2017-09-18T09:17:04.098Z,10
2017-09-18T09:18:13.166Z,10
2017-09-18T09:19:22.513Z,10
2017-09-18T09:20:31.820Z,10
2017-09-18T09:21:40.648Z,10
2017-09-18T09:22:49.949Z,10
2017-09-18T09:23:59.054Z,10
2017-09-18T09:25:08.235Z,25
2017-09-18T09:26:17.065Z,30
2017-09-18T09:27:26.181Z,25
2017-09-18T09:28:35.524Z,20
2017-09-18T09:29:44.469Z,25
2017-09-18T09:30:53.254Z,25
2017-09-18T09:32:02.568Z,25
2017-09-18T09:33:12.369Z,30
2017-09-18T09:34:21.670Z,30
2017-09-18T09:35:30.748Z,25
2017-09-18T09:36:39.411Z,20
2017-09-18T09:37:48.149Z,25
2017-09-18T09:38:57.576Z,20
2017-09-18T09:40:06.606Z,20
2017-09-18T09:41:15.802Z,20
2017-09-18T09:42:25.122Z,25
2017-09-18T09:43:34.307Z,25
2017-09-18T09:44:43.040Z,30
2017-09-18T09:45:52.723Z,35
2017-09-18T09:47:02.333Z,30
2017-09-18T09:48:11.640Z,25
2017-09-18T09:49:20.968Z,20
2017-09-18T09:50:29.659Z,15
2017-09-18T09:51:38.357Z,10
2017-09-18T09:52:47.150Z,10
2017-09-18T09:53:55.968Z,5
2017-09-18T09:55:04.942Z,5
2017-09-18T09:56:13.979Z,0
2017-09-18T09:57:22.932Z,0
2017-09-18T09:58:32.093Z,5
2017-09-18T09:59:40.850Z,5
2017-09-18T10:00:50.258Z,10
2017-09-18T10:01:59.924Z,10
2017-09-18T10:03:08.908Z,10
2017-09-18T10:04:17.966Z,10
2017-09-18T10:05:27.284Z,10
2017-09-18T10:06:36.983Z,20
2017-09-18T10:07:46.022Z,20
2017-09-18T10:08:56.433Z,20
2017-09-18T10:10:05.865Z,15
2017-09-18T10:11:15.204Z,15
2017-09-18T10:12:26.172Z,10
2017-09-18T10:13:36.153Z,10
2017-09-18T10:14:47.049Z,10
2017-09-18T10:15:56.272Z,5
2017-09-18T10:17:05.251Z,5
2017-09-18T10:18:14.588Z,5
2017-09-18T10:19:24.355Z,5
2017-09-18T10:20:33.711Z,5
2017-09-18T10:21:44.024Z,5
2017-09-18T10:22:53.097Z,10
2017-09-18T10:24:02.467Z,15
2017-09-18T10:25:11.714Z,10
2017-09-18T10:26:21.452Z,10
2017-09-18T10:27:30.399Z,10
2017-09-18T10:28:39.923Z,10
2017-09-18T10:29:49.943Z,10
2017-09-18T10:30:59.662Z,10
2017-09-18T10:32:08.588Z,10
2017-09-18T10:33:18.552Z,10
2017-09-18T10:34:28.246Z,10
2017-09-18T10:35:37.969Z,10
2017-09-18T10:36:47.689Z,5
2017-09-18T10:37:57.539Z,5
2017-09-18T10:39:07.933Z,5
2017-09-18T10:40:17.664Z,10
2017-09-18T10:41:27.596Z,15
2017-09-18T10:42:36.676Z,15
2017-09-18T10:43:45.905Z,10
2017-09-18T10:44:55.699Z,10
2017-09-18T10:46:05.654Z,15
2017-09-18T10:47:15.476Z,15
2017-09-18T10:48:25.649Z,10
2017-09-18T10:49:34.765Z,10
2017-09-18T10:50:44.197Z,10
2017-09-18T10:51:55.523Z,15
2017-09-18T10:53:05.570Z,20
2017-09-18T10:54:15.144Z,15
2017-09-18T10:55:24.557Z,15
2017-09-18T10:56:34.224Z,10
2017-09-18T10:57:43.634Z,10
2017-09-18T10:58:53.786Z,5
2017-09-18T11:00:03.516Z,5
2017-09-18T11:01:12.939Z,15
2017-09-18T11:02:23.428Z,20
2017-09-18T11:03:32.715Z,25
2017-09-18T11:04:42.056Z,25
2017-09-18T11:05:52.281Z,20
2017-09-18T11:07:01.470Z,25
2017-09-18T11:08:11.258Z,25
2017-09-18T11:09:20.919Z,30
2017-09-18T11:10:30.918Z,35
2017-09-18T11:11:40.414Z,30
2017-09-18T11:12:50.154Z,30
2017-09-18T11:13:58.974Z,30
2017-09-18T11:15:08.939Z,30
2017-09-18T11:16:18.471Z,30
2017-09-18T11:17:30.086Z,30
2017-09-18T11:18:39.431Z,30
2017-09-18T11:19:49.314Z,30
2017-09-18T11:20:58.620Z,30
2017-09-18T11:22:07.826Z,35
2017-09-18T11:23:17.474Z,35
2017-09-18T11:24:26.507Z,30
2017-09-18T11:25:36.175Z,30
2017-09-18T11:26:45.665Z,30
2017-09-18T11:27:55.062Z,30
2017-09-18T11:29:04.530Z,30
2017-09-18T11:30:13.781Z,35
2017-09-18T11:31:25.038Z,30
2017-09-18T11:32:36.290Z,30
2017-09-18T11:33:47.023Z,30
2017-09-18T11:34:57.940Z,30
2017-09-18T11:36:09.002Z,30
2017-09-18T11:37:19.714Z,30
2017-09-18T11:38:30.130Z,30
2017-09-18T11:39:40.790Z,35
2017-09-18T11:40:51.764Z,30
2017-09-18T11:42:01.849Z,25
2017-09-18T11:43:13.731Z,20
2017-09-18T11:44:24.395Z,15
2017-09-18T11:45:34.855Z,15
2017-09-18T11:46:44.784Z,15
2017-09-18T11:47:53.723Z,15
2017-09-18T11:49:03.613Z,15
2017-09-18T11:50:13.439Z,15
2017-09-18T11:51:22.811Z,15
2017-09-18T11:52:31.767Z,15
2017-09-18T11:53:41.065Z,10
2017-09-18T11:54:50.033Z,15
2017-09-18T11:55:58.993Z,15
2017-09-18T11:57:08.268Z,15
2017-09-18T11:58:17.869Z,15
2017-09-18T11:59:26.855Z,15
2017-09-18T12:00:36.133Z,15
2017-09-18T12:01:45.124Z,20
2017-09-18T12:02:54.422Z,25
2017-09-18T12:04:03.444Z,30
2017-09-18T12:05:12.109Z,35
2017-09-18T12:06:21.435Z,40
2017-09-18T12:07:30.719Z,45
2017-09-18T12:08:39.986Z,45
2017-09-18T12:09:49.097Z,40
2017-09-18T12:10:58.065Z,40
2017-09-18T12:12:06.741Z,45
2017-09-18T12:13:15.702Z,55
2017-09-18T12:14:24.472Z,60
2017-09-18T12:15:33.486Z,55
2017-09-18T12:16:42.449Z,50
2017-09-18T12:17:51.729Z,40
2017-09-18T12:19:00.386Z,35
2017-09-18T12:20:09.671Z,35
2017-09-18T12:21:18.312Z,30
2017-09-18T12:22:26.989Z,25
2017-09-18T12:23:35.654Z,25
2017-09-18T12:24:44.946Z,25
2017-09-18T12:25:54.855Z,25
2017-09-18T12:27:03.500Z,25
2017-09-18T12:28:12.801Z,20
2017-09-18T12:29:22.718Z,25
2017-09-18T12:30:32.638Z,30
2017-09-18T12:31:41.615Z,35
2017-09-18T12:32:50.601Z,40
2017-09-18T12:34:00.265Z,40
2017-09-18T12:35:09.251Z,45
2017-09-18T12:36:18.219Z,45
2017-09-18T12:37:27.814Z,30
2017-09-18T12:38:37.771Z,25
2017-09-18T12:39:46.746Z,20
2017-09-18T12:40:55.395Z,20
2017-09-18T12:42:04.975Z,20
2017-09-18T12:43:13.957Z,15
2017-09-18T12:44:22.949Z,15
2017-09-18T12:45:31.890Z,15
2017-09-18T12:46:40.695Z,15
2017-09-18T12:47:49.667Z,15
2017-09-18T12:48:58.963Z,15
2017-09-18T12:50:07.986Z,15
2017-09-18T12:51:16.941Z,15
2017-09-18T12:52:26.236Z,15
2017-09-18T12:53:35.863Z,15
2017-09-18T12:54:44.834Z,15
2017-09-18T12:55:54.127Z,20
2017-09-18T12:57:02.789Z,20
2017-09-18T12:58:11.767Z,20
2017-09-18T12:59:20.433Z,25
2017-09-18T13:00:29.406Z,25
2017-09-18T13:01:38.721Z,30
2017-09-18T13:02:47.391Z,30
2017-09-18T13:03:56.364Z,25
2017-09-18T13:05:05.022Z,30
2017-09-18T13:06:14.335Z,30
2017-09-18T13:07:22.993Z,25
2017-09-18T13:08:32.604Z,25
2017-09-18T13:09:41.267Z,30
2017-09-18T13:10:50.854Z,30
2017-09-18T13:12:00.148Z,30
2017-09-18T13:13:09.779Z,30
2017-09-18T13:14:19.388Z,35
2017-09-18T13:15:28.058Z,35
2017-09-18T13:16:37.345Z,35
2017-09-18T13:17:46.345Z,40
2017-09-18T13:18:54.998Z,35
2017-09-18T13:20:03.959Z,30
2017-09-18T13:21:13.551Z,25
2017-09-18T13:22:22.842Z,25
2017-09-18T13:23:31.833Z,20
2017-09-18T13:24:40.803Z,20
2017-09-18T13:25:50.409Z,20
2017-09-18T13:26:59.407Z,20
2017-09-18T13:28:08.390Z,20
2017-09-18T13:29:17.373Z,25
2017-09-18T13:30:26.010Z,25
2017-09-18T13:31:35.296Z,30
2017-09-18T13:32:44.288Z,30
2017-09-18T13:33:52.968Z,30
2017-09-18T13:35:01.956Z,30
2017-09-18T13:36:11.268Z,30
2017-09-18T13:37:20.955Z,30
2017-09-18T13:38:29.928Z,25
2017-09-18T13:39:39.214Z,20
2017-09-18T13:40:48.492Z,20
2017-09-18T13:41:57.780Z,20
2017-09-18T13:43:07.069Z,20
2017-09-18T13:44:16.429Z,20
2017-09-18T13:45:26.062Z,20
2017-09-18T13:46:34.683Z,20
2017-09-18T13:47:43.328Z,20
2017-09-18T13:48:52.623Z,25
2017-09-18T13:50:01.603Z,30
2017-09-18T13:51:10.586Z,30
2017-09-18T13:52:19.312Z,30
2017-09-18T13:53:28.598Z,40
2017-09-18T13:54:37.258Z,40
2017-09-18T13:55:46.263Z,30
2017-09-18T13:56:55.541Z,25
2017-09-18T13:58:05.134Z,30
2017-09-18T13:59:13.779Z,25
2017-09-18T14:00:22.746Z,15
2017-09-18T14:01:31.423Z,15
2017-09-18T14:02:40.373Z,15
2017-09-18T14:03:49.654Z,15
2017-09-18T14:04:58.383Z,15
2017-09-18T14:06:07.670Z,10
2017-09-18T14:07:16.955Z,15
2017-09-18T14:08:26.265Z,15
2017-09-18T14:09:34.906Z,15
2017-09-18T14:10:43.866Z,10
2017-09-18T14:11:52.831Z,10
2017-09-18T14:13:01.494Z,5
2017-09-18T14:14:10.770Z,5
2017-09-18T14:15:19.738Z,5
2017-09-18T14:16:29.033Z,5
2017-09-18T14:17:37.702Z,5
2017-09-18T14:18:46.398Z,5
2017-09-18T14:19:56.008Z,5
2017-09-18T14:21:05.605Z,5
2017-09-18T14:22:14.563Z,0
2017-09-18T14:23:24.162Z,5
2017-09-18T14:24:32.808Z,5
2017-09-18T14:25:41.761Z,5
2017-09-18T14:26:51.347Z,5
2017-09-18T14:28:00.315Z,5
2017-09-18T14:29:09.274Z,5
2017-09-18T14:30:18.239Z,5
2017-09-18T14:31:26.890Z,10
2017-09-18T14:32:35.850Z,10
2017-09-18T14:33:44.821Z,10
2017-09-18T14:34:53.799Z,10
2017-09-18T14:36:02.763Z,10
2017-09-18T14:37:12.049Z,15
2017-09-18T14:38:21.001Z,20
2017-09-18T14:39:30.277Z,20
2017-09-18T14:40:38.939Z,15
2017-09-18T14:41:47.918Z,15
2017-09-18T14:42:57.189Z,10
2017-09-18T14:44:05.888Z,10
2017-09-18T14:45:14.680Z,10
2017-09-18T14:46:23.573Z,10
2017-09-18T14:47:32.739Z,10
2017-09-18T14:48:41.426Z,10
2017-09-18T14:49:50.411Z,10
2017-09-18T14:50:59.821Z,10
2017-09-18T14:52:08.885Z,15
2017-09-18T14:53:17.885Z,15
2017-09-18T14:54:27.965Z,10
2017-09-18T14:55:37.461Z,10
2017-09-18T14:56:46.897Z,10
2017-09-18T14:57:56.265Z,15
2017-09-18T14:59:05.244Z,15
2017-09-18T15:00:14.960Z,15
2017-09-18T15:01:24.245Z,15
2017-09-18T15:02:33.532Z,15
2017-09-18T15:03:42.191Z,15
2017-09-18T15:04:51.199Z,15
2017-09-18T15:06:00.703Z,15
2017-09-18T15:07:09.400Z,10
2017-09-18T15:08:18.049Z,10
2017-09-18T15:09:27.174Z,10
2017-09-18T15:10:35.896Z,10
2017-09-18T15:11:45.041Z,10
2017-09-18T15:12:54.003Z,5
2017-09-18T15:14:03.653Z,5
2017-09-18T15:15:12.734Z,5
2017-09-18T15:16:22.106Z,10
2017-09-18T15:17:31.229Z,10
2017-09-18T15:18:40.591Z,5
2017-09-18T15:19:49.730Z,5
2017-09-18T15:20:58.588Z,5
2017-09-18T15:22:07.239Z,10
2017-09-18T15:23:17.134Z,10
2017-09-18T15:24:26.516Z,10
2017-09-18T15:25:35.200Z,10
2017-09-18T15:26:43.888Z,10
2017-09-18T15:27:52.660Z,10
2017-09-18T15:29:02.559Z,10
2017-09-18T15:30:11.573Z,10
2017-09-18T15:31:20.935Z,5
2017-09-18T15:32:30.949Z,5
2017-09-18T15:33:39.981Z,5
2017-09-18T15:34:49.283Z,5
2017-09-18T15:35:57.961Z,0
2017-09-18T15:37:07.326Z,0
2017-09-18T15:38:16.693Z,0
2017-09-18T15:39:26.456Z,0
2017-09-18T15:40:36.119Z,0
2017-09-18T15:41:45.804Z,0
2017-09-18T15:42:54.948Z,0
2017-09-18T15:44:04.709Z,0
2017-09-18T15:45:14.300Z,0
2017-09-18T15:46:23.334Z,0
2017-09-18T15:47:32.374Z,0
2017-09-18T15:48:41.165Z,0
2017-09-18T15:49:49.952Z,0
2017-09-18T15:50:58.967Z,0
2017-09-18T15:52:08.246Z,0
2017-09-18T15:53:17.378Z,0
2017-09-18T15:54:26.711Z,0
2017-09-18T15:55:35.743Z,0
2017-09-18T15:56:45.235Z,0
2017-09-18T15:57:54.954Z,0
2017-09-18T15:59:04.013Z,0
2017-09-18T16:00:13.339Z,0
2017-09-18T16:01:22.892Z,0
2017-09-18T16:02:31.803Z,0
2017-09-18T16:03:40.759Z,0
2017-09-18T16:04:49.434Z,0
2017-09-18T16:05:58.830Z,0
2017-09-18T16:07:07.788Z,0
2017-09-18T16:08:17.715Z,5
2017-09-18T16:09:26.489Z,5
2017-09-18T16:10:35.409Z,0
2017-09-18T16:11:45.057Z,0
2017-09-18T16:12:54.220Z,0
2017-09-18T16:14:03.788Z,0
2017-09-18T16:15:12.900Z,0
2017-09-18T16:16:21.903Z,0
2017-09-18T16:17:31.293Z,0
2017-09-18T16:18:41.313Z,0
2017-09-18T16:19:50.735Z,0
2017-09-18T16:20:59.527Z,0
2017-09-18T16:22:08.209Z,0
2017-09-18T16:23:17.583Z,5
2017-09-18T16:24:26.545Z,5
2017-09-18T16:25:35.606Z,5
2017-09-18T16:26:44.758Z,5
2017-09-18T16:27:53.725Z,5
2017-09-18T16:29:03.144Z,5
2017-09-18T16:30:12.429Z,5
2017-09-18T16:31:21.406Z,5
2017-09-18T16:32:31.146Z,5
2017-09-18T16:33:40.492Z,5
2017-09-18T16:34:50.119Z,5
2017-09-18T16:35:59.412Z,5
2017-09-18T16:37:08.402Z,5
2017-09-18T16:38:17.426Z,0
2017-09-18T16:39:26.424Z,0
2017-09-18T16:40:35.770Z,0
2017-09-18T16:41:45.484Z,0
2017-09-18T16:42:54.582Z,0
2017-09-18T16:44:03.572Z,5
2017-09-18T16:45:12.847Z,5